Accueil
METAR-TAF:

METAR-TAF

Aéroports :

Florennes, Belgique

Base aérienne de Florennes

latitude: 50-14N, longitude: 004-39E, altitude: 279 m

Observation

Le bulletin a été fait il y a 21 minutes, à 15:55 UTC
Vent 4 kt de ouest/sud-ouest
Température 14°C
Humidité 100%
Pression
Visibilité: 1021 m
Quelques nuages à une hauteur de 3500 ft, Cumulus congestus.
Nuages épars à une hauteur de 6000 ft
faibles averses de pluie

METAR: EBFS 261555Z 24004KT 8000 -SHRA FEW035TCU SCT060 14/14 1021 BLU BLU TEMPO WHT

Heure: 18:16 (16:16 UTC)

Prévision

Le bulletin a été fait il y a 4 heures et 35 minutes, à 11:41 UTC
Prévision valable du 26 à 13 UTC au 26 à 22 UTC
Vent 5 kt de est
Visibilité 10 km ou plus
Nuages épars à une hauteur de 2500 ft
Nuages épars à une hauteur de 22000 ft
Temporairement
du 26 à 13 UTC au 26 à 19 UTC
Nuages épars à une hauteur de 2000 ft

TAF: EBFS 261141Z 2613/2622 09005KT 9999 SCT025 SCT220 TEMPO 2613/2619 SCT020

Observations et prévisions météorologiques de plus de 4000 aéroports (messages METAR et TAF).

Les stations disponibles sont représentées par des disques jaunes et rouges sur la carte.

Passer la souris dessus pour voir le nom de la station.

Cliquer dessus pour voir les observations et prévisions météorologiques.

Pour changer de carte: cliquez sur les boutons verts avec une croix noire pour zoomer, sur le bouton vert avec un tiret pour effectuer un zoom arrière, ou sur les flèches vertes pour les cartes adjacentes.


METAR-TAF: